sensor_id;sensor_type;location;lat;lon;timestamp;P1;durP1;ratioP1;P2;durP2;ratioP2
25717;SDS011;13574;52.040;5.692;2023-02-27T00:01:05;5.25;;;1.70;;
25717;SDS011;13574;52.040;5.692;2023-02-27T00:03:31;3.90;;;1.50;;
25717;SDS011;13574;52.040;5.692;2023-02-27T00:05:57;4.70;;;1.80;;
25717;SDS011;13574;52.040;5.692;2023-02-27T00:08:22;3.45;;;1.60;;
25717;SDS011;13574;52.040;5.692;2023-02-27T00:10:48;5.88;;;1.70;;
25717;SDS011;13574;52.040;5.692;2023-02-27T00:13:14;4.05;;;1.50;;
25717;SDS011;13574;52.040;5.692;2023-02-27T00:15:40;6.07;;;1.98;;
25717;SDS011;13574;52.040;5.692;2023-02-27T00:18:08;3.22;;;1.58;;
25717;SDS011;13574;52.040;5.692;2023-02-27T00:20:34;5.18;;;1.73;;
25717;SDS011;13574;52.040;5.692;2023-02-27T00:23:05;4.65;;;1.52;;
25717;SDS011;13574;52.040;5.692;2023-02-27T00:25:32;7.03;;;1.85;;
25717;SDS011;13574;52.040;5.692;2023-02-27T00:27:58;4.90;;;1.67;;
25717;SDS011;13574;52.040;5.692;2023-02-27T00:30:24;6.07;;;1.30;;
25717;SDS011;13574;52.040;5.692;2023-02-27T00:32:51;5.38;;;1.77;;
25717;SDS011;13574;52.040;5.692;2023-02-27T00:35:17;7.45;;;1.80;;
25717;SDS011;13574;52.040;5.692;2023-02-27T00:37:43;4.95;;;1.80;;
25717;SDS011;13574;52.040;5.692;2023-02-27T00:40:11;4.30;;;1.60;;
25717;SDS011;13574;52.040;5.692;2023-02-27T00:42:37;6.35;;;1.88;;
25717;SDS011;13574;52.040;5.692;2023-02-27T00:45:03;6.28;;;1.70;;
25717;SDS011;13574;52.040;5.692;2023-02-27T00:47:30;6.32;;;2.25;;
25717;SDS011;13574;52.040;5.692;2023-02-27T00:49:56;3.88;;;1.85;;
25717;SDS011;13574;52.040;5.692;2023-02-27T00:52:22;4.03;;;2.03;;
25717;SDS011;13574;52.040;5.692;2023-02-27T00:54:48;4.30;;;1.80;;
25717;SDS011;13574;52.040;5.692;2023-02-27T00:57:13;5.30;;;1.70;;
25717;SDS011;13574;52.040;5.692;2023-02-27T00:59:39;6.75;;;1.65;;
25717;SDS011;13574;52.040;5.692;2023-02-27T01:02:05;4.75;;;1.90;;
25717;SDS011;13574;52.040;5.692;2023-02-27T01:04:31;5.40;;;1.80;;
25717;SDS011;13574;52.040;5.692;2023-02-27T01:06:57;3.30;;;1.70;;
25717;SDS011;13574;52.040;5.692;2023-02-27T01:09:22;5.88;;;1.80;;
25717;SDS011;13574;52.040;5.692;2023-02-27T01:11:49;5.53;;;1.90;;
25717;SDS011;13574;52.040;5.692;2023-02-27T01:14:15;5.25;;;1.80;;
25717;SDS011;13574;52.040;5.692;2023-02-27T01:16:41;6.68;;;1.80;;
25717;SDS011;13574;52.040;5.692;2023-02-27T01:19:06;5.57;;;2.10;;
25717;SDS011;13574;52.040;5.692;2023-02-27T01:21:32;7.55;;;1.95;;
25717;SDS011;13574;52.040;5.692;2023-02-27T01:23:58;5.20;;;1.80;;
25717;SDS011;13574;52.040;5.692;2023-02-27T01:26:24;5.63;;;2.28;;
25717;SDS011;13574;52.040;5.692;2023-02-27T01:28:50;5.85;;;1.90;;
25717;SDS011;13574;52.040;5.692;2023-02-27T01:31:15;3.10;;;1.90;;
25717;SDS011;13574;52.040;5.692;2023-02-27T01:33:41;4.90;;;2.10;;
25717;SDS011;13574;52.040;5.692;2023-02-27T01:36:07;7.15;;;2.20;;
25717;SDS011;13574;52.040;5.692;2023-02-27T01:38:33;3.10;;;2.00;;
25717;SDS011;13574;52.040;5.692;2023-02-27T01:40:59;4.95;;;2.20;;
25717;SDS011;13574;52.040;5.692;2023-02-27T01:43:25;7.30;;;2.10;;
25717;SDS011;13574;52.040;5.692;2023-02-27T01:45:51;7.22;;;2.20;;
25717;SDS011;13574;52.040;5.692;2023-02-27T01:48:21;5.90;;;2.05;;
25717;SDS011;13574;52.040;5.692;2023-02-27T01:50:49;6.28;;;1.95;;
25717;SDS011;13574;52.040;5.692;2023-02-27T01:53:25;7.07;;;2.00;;
25717;SDS011;13574;52.040;5.692;2023-02-27T01:55:53;4.53;;;1.90;;
25717;SDS011;13574;52.040;5.692;2023-02-27T01:58:22;5.73;;;2.07;;
25717;SDS011;13574;52.040;5.692;2023-02-27T02:00:48;6.57;;;2.15;;
25717;SDS011;13574;52.040;5.692;2023-02-27T02:05:54;4.32;;;1.95;;
25717;SDS011;13574;52.040;5.692;2023-02-27T02:08:21;3.65;;;2.03;;
25717;SDS011;13574;52.040;5.692;2023-02-27T02:10:49;6.07;;;2.10;;
25717;SDS011;13574;52.040;5.692;2023-02-27T02:13:17;4.35;;;1.90;;
25717;SDS011;13574;52.040;5.692;2023-02-27T02:15:47;5.30;;;2.25;;
25717;SDS011;13574;52.040;5.692;2023-02-27T02:32:13;4.43;;;2.08;;
25717;SDS011;13574;52.040;5.692;2023-02-27T02:43:04;5.47;;;1.98;;
25717;SDS011;13574;52.040;5.692;2023-02-27T02:48:26;3.47;;;1.85;;
25717;SDS011;13574;52.040;5.692;2023-02-27T02:53:45;4.30;;;1.75;;
25717;SDS011;13574;52.040;5.692;2023-02-27T02:58:58;8.35;;;2.20;;
25717;SDS011;13574;52.040;5.692;2023-02-27T03:01:35;5.07;;;1.80;;
25717;SDS011;13574;52.040;5.692;2023-02-27T03:04:13;4.10;;;1.83;;
25717;SDS011;13574;52.040;5.692;2023-02-27T03:06:49;2.47;;;1.60;;
25717;SDS011;13574;52.040;5.692;2023-02-27T03:11:51;9.15;;;2.15;;
25717;SDS011;13574;52.040;5.692;2023-02-27T03:14:23;6.30;;;2.08;;
25717;SDS011;13574;52.040;5.692;2023-02-27T03:16:51;4.45;;;2.00;;
25717;SDS011;13574;52.040;5.692;2023-02-27T03:21:52;6.13;;;1.90;;
25717;SDS011;13574;52.040;5.692;2023-02-27T03:24:27;6.15;;;1.80;;
25717;SDS011;13574;52.040;5.692;2023-02-27T03:26:59;5.18;;;2.00;;
25717;SDS011;13574;52.040;5.692;2023-02-27T03:29:34;5.47;;;2.10;;
25717;SDS011;13574;52.040;5.692;2023-02-27T03:32:07;8.60;;;2.40;;
25717;SDS011;13574;52.040;5.692;2023-02-27T03:34:47;7.20;;;2.40;;
25717;SDS011;13574;52.040;5.692;2023-02-27T03:39:59;5.03;;;2.03;;
25717;SDS011;13574;52.040;5.692;2023-02-27T03:42:39;5.53;;;2.33;;
25717;SDS011;13574;52.040;5.692;2023-02-27T03:47:44;4.72;;;2.05;;
25717;SDS011;13574;52.040;5.692;2023-02-27T03:50:10;7.78;;;2.63;;
25717;SDS011;13574;52.040;5.692;2023-02-27T03:52:36;7.97;;;2.30;;
25717;SDS011;13574;52.040;5.692;2023-02-27T03:55:10;5.57;;;2.20;;
25717;SDS011;13574;52.040;5.692;2023-02-27T03:57:49;10.48;;;2.50;;
25717;SDS011;13574;52.040;5.692;2023-02-27T04:00:18;4.70;;;2.38;;
25717;SDS011;13574;52.040;5.692;2023-02-27T04:02:46;6.60;;;2.65;;
25717;SDS011;13574;52.040;5.692;2023-02-27T04:05:15;9.65;;;2.63;;
25717;SDS011;13574;52.040;5.692;2023-02-27T04:27:08;3.80;;;2.13;;
25717;SDS011;13574;52.040;5.692;2023-02-27T04:33:00;9.43;;;2.50;;
25717;SDS011;13574;52.040;5.692;2023-02-27T04:35:42;5.60;;;2.50;;
25717;SDS011;13574;52.040;5.692;2023-02-27T04:41:03;9.55;;;2.13;;
25717;SDS011;13574;52.040;5.692;2023-02-27T04:43:36;8.35;;;2.30;;
25717;SDS011;13574;52.040;5.692;2023-02-27T04:46:05;6.18;;;2.60;;
25717;SDS011;13574;52.040;5.692;2023-02-27T04:48:46;6.35;;;2.40;;
25717;SDS011;13574;52.040;5.692;2023-02-27T04:51:30;3.88;;;2.30;;
25717;SDS011;13574;52.040;5.692;2023-02-27T04:54:09;5.68;;;2.20;;
25717;SDS011;13574;52.040;5.692;2023-02-27T04:56:41;7.40;;;2.50;;
25717;SDS011;13574;52.040;5.692;2023-02-27T04:59:21;4.78;;;2.28;;
25717;SDS011;13574;52.040;5.692;2023-02-27T05:02:11;5.60;;;2.25;;
25717;SDS011;13574;52.040;5.692;2023-02-27T05:04:43;4.22;;;2.03;;
25717;SDS011;13574;52.040;5.692;2023-02-27T05:07:12;4.13;;;2.00;;
25717;SDS011;13574;52.040;5.692;2023-02-27T05:09:51;6.15;;;2.17;;
25717;SDS011;13574;52.040;5.692;2023-02-27T05:15:10;5.28;;;1.83;;
25717;SDS011;13574;52.040;5.692;2023-02-27T05:17:37;9.48;;;2.25;;
25717;SDS011;13574;52.040;5.692;2023-02-27T05:20:11;3.60;;;1.75;;
25717;SDS011;13574;52.040;5.692;2023-02-27T05:22:42;7.55;;;2.25;;
25717;SDS011;13574;52.040;5.692;2023-02-27T05:25:36;3.65;;;2.03;;
25717;SDS011;13574;52.040;5.692;2023-02-27T05:28:15;3.83;;;1.92;;
25717;SDS011;13574;52.040;5.692;2023-02-27T05:35:49;9.38;;;2.30;;
25717;SDS011;13574;52.040;5.692;2023-02-27T05:38:21;7.72;;;2.10;;
25717;SDS011;13574;52.040;5.692;2023-02-27T05:41:16;5.30;;;1.98;;
25717;SDS011;13574;52.040;5.692;2023-02-27T05:43:56;14.00;;;2.42;;
25717;SDS011;13574;52.040;5.692;2023-02-27T05:46:36;9.07;;;2.28;;
25717;SDS011;13574;52.040;5.692;2023-02-27T05:49:13;4.25;;;2.20;;
25717;SDS011;13574;52.040;5.692;2023-02-27T05:51:43;9.57;;;1.83;;
25717;SDS011;13574;52.040;5.692;2023-02-27T05:54:16;9.40;;;2.60;;
25717;SDS011;13574;52.040;5.692;2023-02-27T05:57:03;6.70;;;2.10;;
25717;SDS011;13574;52.040;5.692;2023-02-27T06:02:23;6.32;;;2.65;;
25717;SDS011;13574;52.040;5.692;2023-02-27T06:04:49;4.95;;;1.90;;
25717;SDS011;13574;52.040;5.692;2023-02-27T06:07:15;7.30;;;1.88;;
25717;SDS011;13574;52.040;5.692;2023-02-27T06:09:42;4.93;;;2.25;;
25717;SDS011;13574;52.040;5.692;2023-02-27T06:12:09;7.28;;;2.25;;
25717;SDS011;13574;52.040;5.692;2023-02-27T06:14:34;8.68;;;2.20;;
25717;SDS011;13574;52.040;5.692;2023-02-27T06:17:00;8.27;;;2.20;;
25717;SDS011;13574;52.040;5.692;2023-02-27T06:19:26;10.80;;;2.28;;
25717;SDS011;13574;52.040;5.692;2023-02-27T06:21:51;7.95;;;2.10;;
25717;SDS011;13574;52.040;5.692;2023-02-27T06:24:17;5.68;;;1.92;;
25717;SDS011;13574;52.040;5.692;2023-02-27T06:26:43;5.22;;;1.88;;
25717;SDS011;13574;52.040;5.692;2023-02-27T06:29:08;8.05;;;2.20;;
25717;SDS011;13574;52.040;5.692;2023-02-27T06:31:34;7.03;;;2.10;;
25717;SDS011;13574;52.040;5.692;2023-02-27T06:34:00;6.35;;;2.05;;
25717;SDS011;13574;52.040;5.692;2023-02-27T06:36:26;7.45;;;2.00;;
25717;SDS011;13574;52.040;5.692;2023-02-27T06:38:53;6.35;;;2.05;;
25717;SDS011;13574;52.040;5.692;2023-02-27T06:41:19;6.97;;;2.20;;
25717;SDS011;13574;52.040;5.692;2023-02-27T06:43:45;9.30;;;2.42;;
25717;SDS011;13574;52.040;5.692;2023-02-27T06:46:10;9.10;;;2.50;;
25717;SDS011;13574;52.040;5.692;2023-02-27T06:48:36;10.40;;;2.72;;
25717;SDS011;13574;52.040;5.692;2023-02-27T06:51:02;7.28;;;2.15;;
25717;SDS011;13574;52.040;5.692;2023-02-27T06:53:28;4.50;;;1.80;;
25717;SDS011;13574;52.040;5.692;2023-02-27T06:55:53;13.40;;;2.55;;
25717;SDS011;13574;52.040;5.692;2023-02-27T06:58:19;4.72;;;1.90;;
25717;SDS011;13574;52.040;5.692;2023-02-27T07:00:45;6.47;;;2.00;;
25717;SDS011;13574;52.040;5.692;2023-02-27T07:03:11;8.27;;;2.33;;
25717;SDS011;13574;52.040;5.692;2023-02-27T07:05:37;4.55;;;2.03;;
25717;SDS011;13574;52.040;5.692;2023-02-27T07:08:05;5.85;;;2.45;;
25717;SDS011;13574;52.040;5.692;2023-02-27T07:10:31;9.27;;;2.75;;
25717;SDS011;13574;52.040;5.692;2023-02-27T07:12:56;8.27;;;2.00;;
25717;SDS011;13574;52.040;5.692;2023-02-27T07:15:22;5.78;;;2.25;;
25717;SDS011;13574;52.040;5.692;2023-02-27T07:17:48;5.80;;;2.25;;
25717;SDS011;13574;52.040;5.692;2023-02-27T07:20:14;4.70;;;2.28;;
25717;SDS011;13574;52.040;5.692;2023-02-27T07:22:40;6.72;;;2.22;;
25717;SDS011;13574;52.040;5.692;2023-02-27T07:25:08;8.32;;;2.45;;
25717;SDS011;13574;52.040;5.692;2023-02-27T07:27:37;6.95;;;2.20;;
25717;SDS011;13574;52.040;5.692;2023-02-27T07:30:10;8.32;;;2.58;;
25717;SDS011;13574;52.040;5.692;2023-02-27T07:32:36;11.25;;;2.50;;
25717;SDS011;13574;52.040;5.692;2023-02-27T07:35:02;9.65;;;2.50;;
25717;SDS011;13574;52.040;5.692;2023-02-27T07:37:28;8.25;;;2.20;;
25717;SDS011;13574;52.040;5.692;2023-02-27T07:39:54;6.22;;;2.20;;
25717;SDS011;13574;52.040;5.692;2023-02-27T07:42:20;5.47;;;2.10;;
25717;SDS011;13574;52.040;5.692;2023-02-27T07:44:45;7.80;;;2.30;;
25717;SDS011;13574;52.040;5.692;2023-02-27T07:47:11;7.25;;;2.40;;
25717;SDS011;13574;52.040;5.692;2023-02-27T07:49:37;4.65;;;2.28;;
25717;SDS011;13574;52.040;5.692;2023-02-27T07:52:03;7.57;;;2.25;;
25717;SDS011;13574;52.040;5.692;2023-02-27T07:54:28;10.00;;;2.65;;
25717;SDS011;13574;52.040;5.692;2023-02-27T07:56:54;9.20;;;2.30;;
25717;SDS011;13574;52.040;5.692;2023-02-27T07:59:20;8.00;;;1.90;;
25717;SDS011;13574;52.040;5.692;2023-02-27T08:01:45;9.13;;;2.35;;
25717;SDS011;13574;52.040;5.692;2023-02-27T08:04:11;4.57;;;2.15;;
25717;SDS011;13574;52.040;5.692;2023-02-27T08:06:36;5.00;;;1.80;;
25717;SDS011;13574;52.040;5.692;2023-02-27T08:09:02;6.55;;;1.92;;
25717;SDS011;13574;52.040;5.692;2023-02-27T08:11:28;4.57;;;2.30;;
25717;SDS011;13574;52.040;5.692;2023-02-27T08:13:54;7.60;;;2.50;;
25717;SDS011;13574;52.040;5.692;2023-02-27T08:16:19;6.38;;;2.15;;
25717;SDS011;13574;52.040;5.692;2023-02-27T08:18:45;7.60;;;1.83;;
25717;SDS011;13574;52.040;5.692;2023-02-27T08:21:11;5.13;;;2.00;;
25717;SDS011;13574;52.040;5.692;2023-02-27T08:23:37;3.83;;;1.63;;
25717;SDS011;13574;52.040;5.692;2023-02-27T08:26:03;6.30;;;1.90;;
25717;SDS011;13574;52.040;5.692;2023-02-27T08:28:29;6.18;;;2.00;;
25717;SDS011;13574;52.040;5.692;2023-02-27T08:30:57;4.80;;;1.90;;
25717;SDS011;13574;52.040;5.692;2023-02-27T08:33:23;6.93;;;2.35;;
25717;SDS011;13574;52.040;5.692;2023-02-27T08:35:49;6.22;;;2.08;;
25717;SDS011;13574;52.040;5.692;2023-02-27T08:38:14;6.70;;;1.90;;
25717;SDS011;13574;52.040;5.692;2023-02-27T08:40:40;5.90;;;1.90;;
25717;SDS011;13574;52.040;5.692;2023-02-27T08:43:06;7.30;;;2.30;;
25717;SDS011;13574;52.040;5.692;2023-02-27T08:45:31;8.73;;;2.58;;
25717;SDS011;13574;52.040;5.692;2023-02-27T08:47:57;6.85;;;2.30;;
25717;SDS011;13574;52.040;5.692;2023-02-27T08:50:23;9.85;;;2.28;;
25717;SDS011;13574;52.040;5.692;2023-02-27T08:52:49;5.88;;;2.22;;
25717;SDS011;13574;52.040;5.692;2023-02-27T08:55:14;7.07;;;2.35;;
25717;SDS011;13574;52.040;5.692;2023-02-27T08:57:40;6.45;;;2.47;;
25717;SDS011;13574;52.040;5.692;2023-02-27T09:00:06;9.00;;;2.22;;
25717;SDS011;13574;52.040;5.692;2023-02-27T09:02:34;5.10;;;2.42;;
25717;SDS011;13574;52.040;5.692;2023-02-27T09:05:00;4.97;;;2.00;;
25717;SDS011;13574;52.040;5.692;2023-02-27T09:07:26;7.07;;;2.40;;
25717;SDS011;13574;52.040;5.692;2023-02-27T09:09:51;7.95;;;2.20;;
25717;SDS011;13574;52.040;5.692;2023-02-27T09:12:17;4.47;;;1.73;;
25717;SDS011;13574;52.040;5.692;2023-02-27T09:14:43;3.75;;;2.03;;
25717;SDS011;13574;52.040;5.692;2023-02-27T09:17:09;5.95;;;2.00;;
25717;SDS011;13574;52.040;5.692;2023-02-27T09:19:34;4.00;;;1.77;;
25717;SDS011;13574;52.040;5.692;2023-02-27T09:22:00;3.50;;;1.83;;
25717;SDS011;13574;52.040;5.692;2023-02-27T09:24:26;4.93;;;2.33;;
25717;SDS011;13574;52.040;5.692;2023-02-27T09:26:52;7.30;;;2.08;;
25717;SDS011;13574;52.040;5.692;2023-02-27T09:29:17;6.18;;;1.98;;
25717;SDS011;13574;52.040;5.692;2023-02-27T09:31:43;2.88;;;1.52;;
25717;SDS011;13574;52.040;5.692;2023-02-27T09:34:09;6.60;;;2.15;;
25717;SDS011;13574;52.040;5.692;2023-02-27T09:36:35;6.15;;;1.83;;
25717;SDS011;13574;52.040;5.692;2023-02-27T09:39:01;5.55;;;2.10;;
25717;SDS011;13574;52.040;5.692;2023-02-27T09:41:41;5.07;;;1.90;;
25717;SDS011;13574;52.040;5.692;2023-02-27T09:47:02;3.15;;;1.77;;
25717;SDS011;13574;52.040;5.692;2023-02-27T09:49:30;8.02;;;1.90;;
25717;SDS011;13574;52.040;5.692;2023-02-27T09:52:00;7.28;;;1.70;;
25717;SDS011;13574;52.040;5.692;2023-02-27T09:54:28;4.13;;;1.65;;
25717;SDS011;13574;52.040;5.692;2023-02-27T09:56:57;5.18;;;1.50;;
25717;SDS011;13574;52.040;5.692;2023-02-27T09:59:33;5.35;;;1.52;;
25717;SDS011;13574;52.040;5.692;2023-02-27T10:13:01;4.60;;;1.00;;
25717;SDS011;13574;52.040;5.692;2023-02-27T10:15:51;4.65;;;1.10;;
25717;SDS011;13574;52.040;5.692;2023-02-27T10:18:19;3.92;;;0.98;;
25717;SDS011;13574;52.040;5.692;2023-02-27T10:23:19;4.70;;;1.00;;
25717;SDS011;13574;52.040;5.692;2023-02-27T10:25:49;4.15;;;0.80;;
25717;SDS011;13574;52.040;5.692;2023-02-27T10:28:17;4.45;;;1.20;;
25717;SDS011;13574;52.040;5.692;2023-02-27T10:30:51;3.45;;;1.00;;
25717;SDS011;13574;52.040;5.692;2023-02-27T10:33:53;4.15;;;1.00;;
25717;SDS011;13574;52.040;5.692;2023-02-27T10:36:15;2.78;;;0.70;;
25717;SDS011;13574;52.040;5.692;2023-02-27T10:38:43;3.85;;;0.95;;
25717;SDS011;13574;52.040;5.692;2023-02-27T10:41:13;2.60;;;0.95;;
25717;SDS011;13574;52.040;5.692;2023-02-27T10:43:41;3.60;;;0.73;;
25717;SDS011;13574;52.040;5.692;2023-02-27T10:46:14;2.10;;;0.80;;
25717;SDS011;13574;52.040;5.692;2023-02-27T10:48:44;3.55;;;0.70;;
25717;SDS011;13574;52.040;5.692;2023-02-27T10:51:21;3.40;;;0.77;;
25717;SDS011;13574;52.040;5.692;2023-02-27T10:56:50;2.72;;;0.80;;
25717;SDS011;13574;52.040;5.692;2023-02-27T11:01:56;1.90;;;0.80;;
25717;SDS011;13574;52.040;5.692;2023-02-27T11:07:06;2.15;;;0.80;;
25717;SDS011;13574;52.040;5.692;2023-02-27T11:09:35;1.63;;;0.70;;
25717;SDS011;13574;52.040;5.692;2023-02-27T11:14:58;2.40;;;0.88;;
25717;SDS011;13574;52.040;5.692;2023-02-27T11:17:44;4.30;;;0.98;;
25717;SDS011;13574;52.040;5.692;2023-02-27T11:20:31;4.22;;;1.00;;
25717;SDS011;13574;52.040;5.692;2023-02-27T11:25:42;3.75;;;0.80;;
25717;SDS011;13574;52.040;5.692;2023-02-27T11:30:56;3.25;;;0.90;;
25717;SDS011;13574;52.040;5.692;2023-02-27T11:33:25;0.88;;;0.60;;
25717;SDS011;13574;52.040;5.692;2023-02-27T11:35:52;2.38;;;0.88;;
25717;SDS011;13574;52.040;5.692;2023-02-27T11:38:27;1.17;;;0.50;;
25717;SDS011;13574;52.040;5.692;2023-02-27T11:46:02;1.87;;;0.43;;
25717;SDS011;13574;52.040;5.692;2023-02-27T11:48:31;1.48;;;0.75;;
25717;SDS011;13574;52.040;5.692;2023-02-27T11:51:04;0.90;;;0.60;;
25717;SDS011;13574;52.040;5.692;2023-02-27T11:59:16;6.00;;;0.65;;
25717;SDS011;13574;52.040;5.692;2023-02-27T12:02:00;1.13;;;0.50;;
25717;SDS011;13574;52.040;5.692;2023-02-27T12:04:28;1.50;;;0.60;;
25717;SDS011;13574;52.040;5.692;2023-02-27T12:07:13;2.25;;;0.60;;
25717;SDS011;13574;52.040;5.692;2023-02-27T12:12:21;1.38;;;0.60;;
25717;SDS011;13574;52.040;5.692;2023-02-27T12:14:55;0.93;;;0.50;;
25717;SDS011;13574;52.040;5.692;2023-02-27T12:22:59;1.45;;;0.70;;
25717;SDS011;13574;52.040;5.692;2023-02-27T12:25:34;4.03;;;0.85;;
25717;SDS011;13574;52.040;5.692;2023-02-27T12:28:25;8.13;;;0.90;;
25717;SDS011;13574;52.040;5.692;2023-02-27T12:36:41;2.70;;;0.77;;
25717;SDS011;13574;52.040;5.692;2023-02-27T12:39:10;4.75;;;1.20;;
25717;SDS011;13574;52.040;5.692;2023-02-27T12:42:09;1.27;;;0.70;;
25717;SDS011;13574;52.040;5.692;2023-02-27T12:50:21;4.30;;;0.90;;
25717;SDS011;13574;52.040;5.692;2023-02-27T12:56:17;3.97;;;1.00;;
25717;SDS011;13574;52.040;5.692;2023-02-27T13:01:56;3.53;;;1.52;;
25717;SDS011;13574;52.040;5.692;2023-02-27T13:04:40;3.53;;;1.45;;
25717;SDS011;13574;52.040;5.692;2023-02-27T13:07:32;3.30;;;1.27;;
25717;SDS011;13574;52.040;5.692;2023-02-27T13:10:06;1.90;;;1.10;;
25717;SDS011;13574;52.040;5.692;2023-02-27T13:12:40;2.05;;;1.30;;
25717;SDS011;13574;52.040;5.692;2023-02-27T13:15:19;2.72;;;1.10;;
25717;SDS011;13574;52.040;5.692;2023-02-27T13:17:58;3.72;;;1.15;;
25717;SDS011;13574;52.040;5.692;2023-02-27T13:25:49;7.00;;;1.25;;
25717;SDS011;13574;52.040;5.692;2023-02-27T13:28:17;2.47;;;1.20;;
25717;SDS011;13574;52.040;5.692;2023-02-27T13:31:05;3.90;;;1.40;;
25717;SDS011;13574;52.040;5.692;2023-02-27T13:36:29;2.42;;;1.30;;
25717;SDS011;13574;52.040;5.692;2023-02-27T13:39:03;3.08;;;1.00;;
25717;SDS011;13574;52.040;5.692;2023-02-27T13:44:35;4.57;;;1.60;;
25717;SDS011;13574;52.040;5.692;2023-02-27T13:46:45;4.10;;;1.20;;
25717;SDS011;13574;52.040;5.692;2023-02-27T13:56:36;6.88;;;1.40;;
25717;SDS011;13574;52.040;5.692;2023-02-27T14:01:47;4.40;;;1.45;;
25717;SDS011;13574;52.040;5.692;2023-02-27T14:04:17;3.20;;;1.00;;
25717;SDS011;13574;52.040;5.692;2023-02-27T14:06:44;3.13;;;1.15;;
25717;SDS011;13574;52.040;5.692;2023-02-27T14:09:12;3.63;;;1.20;;
25717;SDS011;13574;52.040;5.692;2023-02-27T14:11:53;3.83;;;1.20;;
25717;SDS011;13574;52.040;5.692;2023-02-27T14:14:41;4.97;;;1.42;;
25717;SDS011;13574;52.040;5.692;2023-02-27T14:17:10;7.28;;;1.40;;
25717;SDS011;13574;52.040;5.692;2023-02-27T14:19:56;3.05;;;1.30;;
25717;SDS011;13574;52.040;5.692;2023-02-27T14:24:57;3.85;;;1.80;;
25717;SDS011;13574;52.040;5.692;2023-02-27T14:27:31;3.13;;;1.20;;
25717;SDS011;13574;52.040;5.692;2023-02-27T14:31:21;4.78;;;1.23;;
25717;SDS011;13574;52.040;5.692;2023-02-27T14:33:39;4.68;;;1.73;;
25717;SDS011;13574;52.040;5.692;2023-02-27T14:36:28;3.65;;;1.30;;
25717;SDS011;13574;52.040;5.692;2023-02-27T14:38:57;5.90;;;1.70;;
25717;SDS011;13574;52.040;5.692;2023-02-27T14:46:44;5.95;;;1.88;;
25717;SDS011;13574;52.040;5.692;2023-02-27T14:51:45;3.88;;;2.30;;
25717;SDS011;13574;52.040;5.692;2023-02-27T14:56:38;14.20;;;5.60;;
25717;SDS011;13574;52.040;5.692;2023-02-27T14:59:24;4.30;;;3.00;;
25717;SDS011;13574;52.040;5.692;2023-02-27T15:01:52;2.67;;;1.60;;
25717;SDS011;13574;52.040;5.692;2023-02-27T15:04:21;4.60;;;2.72;;
25717;SDS011;13574;52.040;5.692;2023-02-27T15:06:50;8.02;;;2.70;;
25717;SDS011;13574;52.040;5.692;2023-02-27T15:09:34;7.32;;;2.03;;
25717;SDS011;13574;52.040;5.692;2023-02-27T15:12:15;3.95;;;1.80;;
25717;SDS011;13574;52.040;5.692;2023-02-27T15:14:49;3.90;;;1.58;;
25717;SDS011;13574;52.040;5.692;2023-02-27T15:17:27;5.78;;;2.65;;
25717;SDS011;13574;52.040;5.692;2023-02-27T15:20:01;5.38;;;1.90;;
25717;SDS011;13574;52.040;5.692;2023-02-27T15:22:56;4.07;;;1.70;;
25717;SDS011;13574;52.040;5.692;2023-02-27T15:28:00;6.50;;;1.95;;
25717;SDS011;13574;52.040;5.692;2023-02-27T15:30:27;9.18;;;2.47;;
25717;SDS011;13574;52.040;5.692;2023-02-27T15:32:53;5.60;;;2.00;;
25717;SDS011;13574;52.040;5.692;2023-02-27T15:35:24;4.50;;;1.70;;
25717;SDS011;13574;52.040;5.692;2023-02-27T15:37:55;2.38;;;1.25;;
25717;SDS011;13574;52.040;5.692;2023-02-27T15:40:25;4.15;;;1.92;;
25717;SDS011;13574;52.040;5.692;2023-02-27T15:42:52;3.30;;;1.73;;
25717;SDS011;13574;52.040;5.692;2023-02-27T15:45:20;4.50;;;2.83;;
25717;SDS011;13574;52.040;5.692;2023-02-27T15:47:57;3.03;;;2.03;;
25717;SDS011;13574;52.040;5.692;2023-02-27T15:50:24;5.57;;;2.85;;
25717;SDS011;13574;52.040;5.692;2023-02-27T15:53:02;3.65;;;1.70;;
25717;SDS011;13574;52.040;5.692;2023-02-27T15:55:38;4.50;;;1.77;;
25717;SDS011;13574;52.040;5.692;2023-02-27T15:58:11;3.88;;;1.80;;
25717;SDS011;13574;52.040;5.692;2023-02-27T16:03:25;3.20;;;1.80;;
25717;SDS011;13574;52.040;5.692;2023-02-27T16:05:56;3.40;;;1.55;;
25717;SDS011;13574;52.040;5.692;2023-02-27T16:08:23;2.47;;;1.40;;
25717;SDS011;13574;52.040;5.692;2023-02-27T16:10:48;4.50;;;1.58;;
25717;SDS011;13574;52.040;5.692;2023-02-27T16:13:28;12.10;;;2.00;;
25717;SDS011;13574;52.040;5.692;2023-02-27T16:18:57;3.95;;;1.70;;
25717;SDS011;13574;52.040;5.692;2023-02-27T16:21:24;5.82;;;2.40;;
25717;SDS011;13574;52.040;5.692;2023-02-27T16:23:51;3.53;;;1.70;;
25717;SDS011;13574;52.040;5.692;2023-02-27T16:31:31;3.28;;;1.70;;
25717;SDS011;13574;52.040;5.692;2023-02-27T16:36:52;3.63;;;2.00;;
25717;SDS011;13574;52.040;5.692;2023-02-27T16:39:22;3.70;;;2.58;;
25717;SDS011;13574;52.040;5.692;2023-02-27T16:41:50;5.35;;;2.75;;
25717;SDS011;13574;52.040;5.692;2023-02-27T16:44:19;8.43;;;4.80;;
25717;SDS011;13574;52.040;5.692;2023-02-27T16:46:47;5.15;;;1.92;;
25717;SDS011;13574;52.040;5.692;2023-02-27T16:49:24;4.95;;;2.10;;
25717;SDS011;13574;52.040;5.692;2023-02-27T16:51:51;5.25;;;2.00;;
25717;SDS011;13574;52.040;5.692;2023-02-27T16:54:17;4.68;;;1.90;;
25717;SDS011;13574;52.040;5.692;2023-02-27T16:56:43;3.47;;;1.63;;
25717;SDS011;13574;52.040;5.692;2023-02-27T17:01:58;5.90;;;2.65;;
25717;SDS011;13574;52.040;5.692;2023-02-27T17:04:25;13.32;;;8.73;;
25717;SDS011;13574;52.040;5.692;2023-02-27T17:06:53;8.45;;;4.88;;
25717;SDS011;13574;52.040;5.692;2023-02-27T17:09:20;4.80;;;2.72;;
25717;SDS011;13574;52.040;5.692;2023-02-27T17:11:45;5.03;;;2.40;;
25717;SDS011;13574;52.040;5.692;2023-02-27T17:14:11;4.70;;;1.85;;
25717;SDS011;13574;52.040;5.692;2023-02-27T17:16:37;10.25;;;5.72;;
25717;SDS011;13574;52.040;5.692;2023-02-27T17:19:03;7.28;;;4.00;;
25717;SDS011;13574;52.040;5.692;2023-02-27T17:21:28;5.50;;;3.30;;
25717;SDS011;13574;52.040;5.692;2023-02-27T17:23:54;5.38;;;2.28;;
25717;SDS011;13574;52.040;5.692;2023-02-27T17:26:20;4.65;;;2.50;;
25717;SDS011;13574;52.040;5.692;2023-02-27T17:28:45;3.72;;;2.45;;
25717;SDS011;13574;52.040;5.692;2023-02-27T17:31:12;4.88;;;3.08;;
25717;SDS011;13574;52.040;5.692;2023-02-27T17:33:39;5.60;;;3.17;;
25717;SDS011;13574;52.040;5.692;2023-02-27T17:36:06;5.57;;;3.05;;
25717;SDS011;13574;52.040;5.692;2023-02-27T17:38:33;5.18;;;2.88;;
25717;SDS011;13574;52.040;5.692;2023-02-27T17:41:07;7.72;;;3.05;;
25717;SDS011;13574;52.040;5.692;2023-02-27T17:43:35;5.70;;;3.33;;
25717;SDS011;13574;52.040;5.692;2023-02-27T17:46:04;12.02;;;6.72;;
25717;SDS011;13574;52.040;5.692;2023-02-27T17:48:30;7.53;;;3.72;;
25717;SDS011;13574;52.040;5.692;2023-02-27T17:51:02;4.93;;;2.55;;
25717;SDS011;13574;52.040;5.692;2023-02-27T17:53:32;5.63;;;2.50;;
25717;SDS011;13574;52.040;5.692;2023-02-27T17:55:58;3.63;;;1.90;;
25717;SDS011;13574;52.040;5.692;2023-02-27T17:58:24;5.00;;;2.13;;
25717;SDS011;13574;52.040;5.692;2023-02-27T18:00:50;5.25;;;2.10;;
25717;SDS011;13574;52.040;5.692;2023-02-27T18:03:16;7.85;;;2.58;;
25717;SDS011;13574;52.040;5.692;2023-02-27T18:05:51;4.88;;;2.10;;
25717;SDS011;13574;52.040;5.692;2023-02-27T18:08:20;5.97;;;2.13;;
25717;SDS011;13574;52.040;5.692;2023-02-27T18:10:47;3.00;;;1.83;;
25717;SDS011;13574;52.040;5.692;2023-02-27T18:13:14;4.20;;;2.03;;
25717;SDS011;13574;52.040;5.692;2023-02-27T18:15:41;5.95;;;2.42;;
25717;SDS011;13574;52.040;5.692;2023-02-27T18:18:07;4.95;;;2.40;;
25717;SDS011;13574;52.040;5.692;2023-02-27T18:20:34;5.70;;;2.92;;
25717;SDS011;13574;52.040;5.692;2023-02-27T18:22:59;7.50;;;3.65;;
25717;SDS011;13574;52.040;5.692;2023-02-27T18:25:25;12.80;;;3.67;;
25717;SDS011;13574;52.040;5.692;2023-02-27T18:27:54;11.35;;;2.97;;